createdAt,value
2019-01-04T00:00:12.185Z,0
2019-01-04T00:01:13.617Z,0
2019-01-04T00:02:15.118Z,0
2019-01-04T00:03:16.513Z,0
2019-01-04T00:04:17.906Z,0
2019-01-04T00:05:19.438Z,0
2019-01-04T00:06:20.829Z,0
2019-01-04T00:07:22.319Z,0
2019-01-04T00:08:23.714Z,0
2019-01-04T00:09:25.199Z,0
2019-01-04T00:10:26.591Z,0
2019-01-04T00:11:28.105Z,0
2019-01-04T00:12:29.500Z,0
2019-01-04T00:13:30.964Z,0
2019-01-04T00:14:32.353Z,0
2019-01-04T00:15:33.743Z,0
2019-01-04T00:16:35.281Z,0
2019-01-04T00:17:36.676Z,0
2019-01-04T00:18:38.065Z,0
2019-01-04T00:19:39.603Z,0
2019-01-04T00:20:40.994Z,0
2019-01-04T00:21:42.486Z,0
2019-01-04T00:22:43.876Z,0
2019-01-04T00:23:45.375Z,0
2019-01-04T00:24:46.766Z,0
2019-01-04T00:25:48.164Z,0
2019-01-04T00:26:49.687Z,0
2019-01-04T00:27:51.077Z,0
2019-01-04T00:28:52.472Z,0
2019-01-04T00:29:54.022Z,0
2019-01-04T00:30:55.414Z,0
2019-01-04T00:31:56.809Z,0
2019-01-04T00:32:58.329Z,0
2019-01-04T00:33:59.722Z,0
2019-01-04T00:35:01.165Z,0
2019-01-04T00:36:02.653Z,0
2019-01-04T00:37:04.043Z,0
2019-01-04T00:38:05.558Z,0
2019-01-04T00:39:06.973Z,0
2019-01-04T00:40:08.367Z,0
2019-01-04T00:41:09.833Z,0
2019-01-04T00:42:11.295Z,0
2019-01-04T00:43:12.691Z,0
2019-01-04T00:44:14.075Z,0
2019-01-04T00:45:15.669Z,0
2019-01-04T00:46:17.060Z,0
2019-01-04T00:47:18.494Z,0
2019-01-04T00:48:19.890Z,0
2019-01-04T00:49:21.582Z,0
2019-01-04T00:50:22.983Z,0
2019-01-04T00:51:24.465Z,0
2019-01-04T00:52:25.859Z,0
2019-01-04T00:53:27.347Z,0
2019-01-04T00:54:28.755Z,0
2019-01-04T00:55:30.330Z,0
2019-01-04T00:56:31.719Z,0
2019-01-04T00:57:33.309Z,0
2019-01-04T00:58:34.698Z,0
2019-01-04T00:59:36.191Z,0
2019-01-04T01:00:37.580Z,0
2019-01-04T01:01:39.173Z,0
2019-01-04T01:02:40.565Z,0
2019-01-04T01:03:42.260Z,0
2019-01-04T01:04:43.661Z,0
2019-01-04T01:05:45.047Z,0
2019-01-04T01:06:46.597Z,0
2019-01-04T01:07:47.988Z,0
2019-01-04T01:08:49.379Z,0
2019-01-04T01:09:50.904Z,0
2019-01-04T01:10:52.296Z,0
2019-01-04T01:11:53.712Z,0
2019-01-04T01:12:55.224Z,0
2019-01-04T01:13:56.630Z,0
2019-01-04T01:14:58.021Z,0
2019-01-04T01:15:59.444Z,0
2019-01-04T01:17:00.840Z,0
2019-01-04T01:18:02.232Z,0
2019-01-04T01:19:03.862Z,0
2019-01-04T01:20:05.266Z,0
2019-01-04T01:21:06.655Z,0
2019-01-04T01:22:08.188Z,0
2019-01-04T01:23:09.607Z,0
2019-01-04T01:24:11.273Z,0
2019-01-04T01:25:12.664Z,0
2019-01-04T01:26:14.053Z,0
2019-01-04T01:27:15.624Z,0
2019-01-04T01:28:17.014Z,0
2019-01-04T01:29:18.408Z,0
2019-01-04T01:30:19.810Z,0
2019-01-04T01:31:21.208Z,0
2019-01-04T01:32:22.797Z,0
2019-01-04T01:33:24.194Z,0
2019-01-04T01:34:25.886Z,0
2019-01-04T01:35:27.280Z,0
2019-01-04T01:36:28.978Z,0
2019-01-04T01:37:30.365Z,0
2019-01-04T01:38:31.765Z,0
2019-01-04T01:39:33.294Z,0
2019-01-04T01:40:34.682Z,0
2019-01-04T01:41:36.073Z,0
2019-01-04T01:42:37.616Z,0
2019-01-04T01:43:39.010Z,0
2019-01-04T01:44:40.798Z,0
2019-01-04T01:45:42.344Z,0
2019-01-04T01:46:45.087Z,0
2019-01-04T01:47:46.663Z,0
2019-01-04T01:48:49.301Z,0
2019-01-04T01:49:50.976Z,0
2019-01-04T01:50:52.367Z,0
2019-01-04T01:51:53.783Z,0
2019-01-04T01:52:55.500Z,0
2019-01-04T01:53:56.892Z,0
2019-01-04T01:54:58.284Z,0
2019-01-04T01:55:59.820Z,0
2019-01-04T01:57:01.249Z,0
2019-01-04T01:58:02.926Z,0
2019-01-04T01:59:04.317Z,0
2019-01-04T02:00:05.990Z,0
2019-01-04T02:01:07.377Z,0
2019-01-04T02:02:09.078Z,0
2019-01-04T02:03:10.463Z,0
2019-01-04T02:04:12.170Z,0
2019-01-04T02:05:13.563Z,0
2019-01-04T02:06:15.254Z,0
2019-01-04T02:07:16.647Z,0
2019-01-04T02:08:18.344Z,0
2019-01-04T02:09:19.733Z,0
2019-01-04T02:10:21.416Z,0
2019-01-04T02:11:22.818Z,0
2019-01-04T02:12:24.217Z,0
2019-01-04T02:13:25.618Z,0
2019-01-04T02:14:27.181Z,0
2019-01-04T02:15:28.569Z,0
2019-01-04T02:16:29.963Z,0
2019-01-04T02:17:31.363Z,0
2019-01-04T02:18:32.946Z,0
2019-01-04T02:19:34.335Z,0
2019-01-04T02:20:35.733Z,0
2019-01-04T02:21:37.264Z,0
2019-01-04T02:22:38.651Z,0
2019-01-04T02:23:40.045Z,0
2019-01-04T02:24:41.586Z,0
2019-01-04T02:25:43.364Z,0
2019-01-04T02:26:44.758Z,0
2019-01-04T02:27:46.731Z,0
2019-01-04T02:28:48.141Z,0
2019-01-04T02:29:49.814Z,0
2019-01-04T02:30:51.224Z,0
2019-01-04T02:31:52.593Z,0
2019-01-04T02:32:54.144Z,0
2019-01-04T02:33:55.534Z,0
2019-01-04T02:34:56.927Z,0
2019-01-04T02:35:58.464Z,0
2019-01-04T02:36:59.848Z,0
2019-01-04T02:38:01.235Z,0
2019-01-04T02:39:02.771Z,0
2019-01-04T02:40:04.180Z,0
2019-01-04T02:41:06.248Z,0
2019-01-04T02:42:07.914Z,0
2019-01-04T02:43:09.308Z,0
2019-01-04T02:44:10.697Z,0
2019-01-04T02:45:12.092Z,0
2019-01-04T02:46:13.678Z,0
2019-01-04T02:47:15.458Z,0
2019-01-04T02:48:16.970Z,0
2019-01-04T02:49:18.364Z,0
2019-01-04T02:50:19.762Z,0
2019-01-04T02:51:21.162Z,0
2019-01-04T02:52:22.566Z,0
2019-01-04T02:53:23.952Z,0
2019-01-04T02:54:25.611Z,0
2019-01-04T02:55:27.397Z,0
2019-01-04T02:56:28.792Z,0
2019-01-04T02:57:30.203Z,0
2019-01-04T02:58:31.790Z,0
2019-01-04T02:59:33.179Z,0
2019-01-04T03:00:34.868Z,0
2019-01-04T03:01:36.257Z,0
2019-01-04T03:02:37.651Z,0
2019-01-04T03:03:39.058Z,0
2019-01-04T03:04:40.691Z,0
2019-01-04T03:05:42.074Z,0
2019-01-04T03:06:43.470Z,0
2019-01-04T03:07:45.156Z,0
2019-01-04T03:08:46.547Z,0
2019-01-04T03:09:48.247Z,0
2019-01-04T03:10:49.640Z,0
2019-01-04T03:11:51.330Z,0
2019-01-04T03:12:52.716Z,0
2019-01-04T03:13:54.411Z,0
2019-01-04T03:14:55.802Z,0
2019-01-04T03:15:57.498Z,0
2019-01-04T03:16:58.889Z,0
2019-01-04T03:18:00.285Z,0
2019-01-04T03:19:01.853Z,0
2019-01-04T03:20:03.250Z,0
2019-01-04T03:21:04.638Z,0
2019-01-04T03:22:06.149Z,0
2019-01-04T03:23:07.533Z,0
2019-01-04T03:24:08.927Z,0
2019-01-04T03:25:10.463Z,0
2019-01-04T03:26:11.859Z,0
2019-01-04T03:27:13.252Z,0
2019-01-04T03:28:14.783Z,0
2019-01-04T03:29:16.179Z,0
2019-01-04T03:30:17.914Z,0
2019-01-04T03:31:19.323Z,0
2019-01-04T03:32:20.957Z,0
2019-01-04T03:33:22.352Z,0
2019-01-04T03:34:24.049Z,0
2019-01-04T03:35:25.441Z,0
2019-01-04T03:36:27.127Z,0
2019-01-04T03:37:28.566Z,0
2019-01-04T03:38:29.953Z,0
2019-01-04T03:39:31.661Z,0
2019-01-04T03:40:33.104Z,0
2019-01-04T03:41:34.872Z,0
2019-01-04T03:42:36.381Z,0
2019-01-04T03:43:37.776Z,0
2019-01-04T03:44:39.172Z,0
2019-01-04T03:45:40.703Z,0
2019-01-04T03:46:42.096Z,0
2019-01-04T03:47:43.490Z,0
2019-01-04T03:48:45.025Z,0
2019-01-04T03:49:46.416Z,0
2019-01-04T03:50:48.112Z,0
2019-01-04T03:51:49.508Z,0
2019-01-04T03:52:51.200Z,0
2019-01-04T03:53:52.595Z,0
2019-01-04T03:54:54.284Z,0
2019-01-04T03:55:55.676Z,0
2019-01-04T03:56:57.369Z,0
2019-01-04T03:57:58.763Z,0
2019-01-04T03:59:00.466Z,0
2019-01-04T04:00:01.861Z,0
2019-01-04T04:01:03.542Z,0
2019-01-04T04:02:04.936Z,0
2019-01-04T04:03:06.631Z,0
2019-01-04T04:04:08.025Z,0
2019-01-04T04:05:09.716Z,0
2019-01-04T04:06:11.117Z,0
2019-01-04T04:07:12.506Z,0
2019-01-04T04:08:14.037Z,0
2019-01-04T04:09:15.428Z,0
2019-01-04T04:10:16.823Z,0
2019-01-04T04:11:18.363Z,0
2019-01-04T04:12:19.753Z,0
2019-01-04T04:13:21.142Z,0
2019-01-04T04:14:22.681Z,0
2019-01-04T04:15:24.071Z,0
2019-01-04T04:16:25.765Z,0
2019-01-04T04:17:27.176Z,0
2019-01-04T04:18:28.563Z,0
2019-01-04T04:19:30.088Z,0
2019-01-04T04:20:31.475Z,0
2019-01-04T04:21:32.871Z,0
2019-01-04T04:22:34.404Z,0
2019-01-04T04:23:35.797Z,0
2019-01-04T04:24:37.508Z,0
2019-01-04T04:25:38.900Z,0
2019-01-04T04:26:40.576Z,0
2019-01-04T04:27:41.978Z,0
2019-01-04T04:28:43.745Z,0
2019-01-04T04:29:45.151Z,0
2019-01-04T04:30:46.748Z,0
2019-01-04T04:31:48.140Z,0
2019-01-04T04:32:49.563Z,0
2019-01-04T04:33:51.071Z,0
2019-01-04T04:34:52.462Z,0
2019-01-04T04:35:53.857Z,0
2019-01-04T04:36:55.408Z,0
2019-01-04T04:37:56.803Z,0
2019-01-04T04:38:58.263Z,0
2019-01-04T04:39:59.642Z,0
2019-01-04T04:41:01.358Z,0
2019-01-04T04:42:02.749Z,0
2019-01-04T04:43:04.151Z,0
2019-01-04T04:44:05.680Z,0
2019-01-04T04:45:07.071Z,0
2019-01-04T04:46:08.841Z,0
2019-01-04T04:47:10.409Z,0
2019-01-04T04:48:11.800Z,0
2019-01-04T04:49:13.497Z,0
2019-01-04T04:50:14.886Z,0
2019-01-04T04:51:16.584Z,0
2019-01-04T04:52:17.997Z,0
2019-01-04T04:53:19.668Z,0
2019-01-04T04:54:21.064Z,0
2019-01-04T04:55:22.754Z,0
2019-01-04T04:56:24.144Z,0
2019-01-04T04:57:25.836Z,0
2019-01-04T04:58:27.232Z,0
2019-01-04T04:59:29.750Z,0
2019-01-04T05:00:31.100Z,0
2019-01-04T05:01:32.626Z,0
2019-01-04T05:02:34.018Z,0
2019-01-04T05:03:35.414Z,0
2019-01-04T05:04:36.954Z,0
2019-01-04T05:05:38.353Z,0
2019-01-04T05:06:39.744Z,0
2019-01-04T05:07:41.271Z,0
2019-01-04T05:08:42.661Z,0
2019-01-04T05:09:44.355Z,0
2019-01-04T05:10:45.747Z,0
2019-01-04T05:11:47.440Z,0
2019-01-04T05:12:48.830Z,0
2019-01-04T05:13:50.232Z,0
2019-01-04T05:14:51.763Z,0
2019-01-04T05:15:53.155Z,0
2019-01-04T05:16:54.546Z,0
2019-01-04T05:17:56.082Z,0
2019-01-04T05:18:57.486Z,0
2019-01-04T05:19:58.883Z,0
2019-01-04T05:21:00.402Z,0
2019-01-04T05:22:01.802Z,0
2019-01-04T05:23:03.183Z,0
2019-01-04T05:24:04.727Z,0
2019-01-04T05:25:06.119Z,0
2019-01-04T05:26:07.518Z,0
2019-01-04T05:27:09.078Z,0
2019-01-04T05:28:10.467Z,0
2019-01-04T05:29:11.857Z,0
2019-01-04T05:30:13.369Z,0
2019-01-04T05:31:14.763Z,0
2019-01-04T05:32:16.453Z,0
2019-01-04T05:33:17.856Z,0
2019-01-04T05:34:19.546Z,0
2019-01-04T05:35:20.938Z,0
2019-01-04T05:36:22.627Z,0
2019-01-04T05:37:24.020Z,0
2019-01-04T05:38:25.711Z,0
2019-01-04T05:39:27.101Z,0
2019-01-04T05:40:28.494Z,0
2019-01-04T05:41:30.034Z,0
2019-01-04T05:42:31.431Z,0
2019-01-04T05:43:32.827Z,0
2019-01-04T05:44:34.354Z,0
2019-01-04T05:45:35.746Z,0
2019-01-04T05:46:37.438Z,0
2019-01-04T05:47:38.832Z,0
2019-01-04T05:48:40.225Z,0
2019-01-04T05:49:41.771Z,0
2019-01-04T05:50:43.163Z,0
2019-01-04T05:51:44.555Z,0
2019-01-04T05:52:46.083Z,0
2019-01-04T05:53:47.485Z,0
2019-01-04T05:54:48.876Z,0
2019-01-04T05:55:50.401Z,0
2019-01-04T05:56:51.797Z,0
2019-01-04T05:57:53.187Z,0
2019-01-04T05:58:54.742Z,0
2019-01-04T05:59:56.139Z,0
2019-01-04T06:00:57.531Z,0
2019-01-04T06:01:59.043Z,0
2019-01-04T06:03:00.438Z,0
2019-01-04T06:04:01.836Z,0
2019-01-04T06:05:03.368Z,0
2019-01-04T06:06:04.760Z,0
2019-01-04T06:07:06.452Z,0
2019-01-04T06:08:07.843Z,0
2019-01-04T06:09:09.246Z,0
2019-01-04T06:10:10.771Z,0
2019-01-04T06:11:12.167Z,0
2019-01-04T06:12:13.559Z,0
2019-01-04T06:13:15.093Z,0
2019-01-04T06:14:16.486Z,0
2019-01-04T06:15:17.880Z,0
2019-01-04T06:16:19.418Z,0
2019-01-04T06:17:20.813Z,0
2019-01-04T06:18:22.213Z,0
2019-01-04T06:19:24.498Z,0
2019-01-04T06:20:25.887Z,0
2019-01-04T06:21:27.288Z,0
2019-01-04T06:22:28.877Z,0
2019-01-04T06:23:30.269Z,0
2019-01-04T06:24:31.663Z,0
2019-01-04T06:25:33.197Z,0
2019-01-04T06:26:34.587Z,0
2019-01-04T06:27:35.987Z,0
2019-01-04T06:28:37.522Z,0
2019-01-04T06:29:38.911Z,0
2019-01-04T06:30:40.606Z,0
2019-01-04T06:31:42.015Z,0
2019-01-04T06:32:43.693Z,0
2019-01-04T06:33:45.111Z,0
2019-01-04T06:34:46.778Z,0
2019-01-04T06:35:48.167Z,0
2019-01-04T06:36:49.863Z,0
2019-01-04T06:37:51.253Z,0
2019-01-04T06:38:52.947Z,0
2019-01-04T06:39:54.339Z,0
2019-01-04T06:40:55.732Z,0
2019-01-04T06:41:57.270Z,0
2019-01-04T06:42:58.662Z,0
2019-01-04T06:44:00.057Z,0
2019-01-04T06:45:01.592Z,0
2019-01-04T06:46:02.984Z,0
2019-01-04T06:47:04.672Z,0
2019-01-04T06:48:06.062Z,0
2019-01-04T06:49:07.458Z,0
2019-01-04T06:50:09.003Z,0
2019-01-04T06:51:10.396Z,0
2019-01-04T06:52:11.786Z,0
2019-01-04T06:53:13.322Z,0
2019-01-04T06:54:14.716Z,0
2019-01-04T06:55:16.108Z,0
2019-01-04T06:56:17.640Z,0
2019-01-04T06:57:19.029Z,0
2019-01-04T06:58:20.729Z,0
2019-01-04T06:59:22.136Z,0
2019-01-04T07:00:23.542Z,0
2019-01-04T07:01:25.052Z,0
2019-01-04T07:02:26.438Z,0
2019-01-04T07:03:27.848Z,0
2019-01-04T07:04:29.369Z,0
2019-01-04T07:05:31.708Z,0
2019-01-04T07:06:32.246Z,0
2019-01-04T07:07:33.640Z,0
2019-01-04T07:08:35.388Z,0
2019-01-04T07:09:36.779Z,0
2019-01-04T07:10:38.461Z,0
2019-01-04T07:11:40.090Z,0
2019-01-04T07:12:41.469Z,0
2019-01-04T07:13:42.859Z,0
2019-01-04T07:14:44.604Z,0
2019-01-04T07:15:45.926Z,0
2019-01-04T07:16:47.478Z,0
2019-01-04T07:17:48.862Z,0
2019-01-04T07:18:50.905Z,0
2019-01-04T07:19:52.296Z,0
2019-01-04T07:20:53.694Z,0
2019-01-04T07:21:55.285Z,0
2019-01-04T07:22:56.682Z,0
2019-01-04T07:23:58.075Z,0
2019-01-04T07:24:59.611Z,0
2019-01-04T07:26:01.002Z,0
2019-01-04T07:27:02.701Z,0
2019-01-04T07:28:04.109Z,0
2019-01-04T07:29:05.837Z,0
2019-01-04T07:30:07.235Z,0
2019-01-04T07:31:08.622Z,0
2019-01-04T07:32:10.693Z,0
2019-01-04T07:33:12.084Z,0
2019-01-04T07:34:13.477Z,0
2019-01-04T07:35:15.243Z,0
2019-01-04T07:36:16.642Z,0
2019-01-04T07:37:18.040Z,0
2019-01-04T07:38:19.586Z,0
2019-01-04T07:39:20.977Z,0
2019-01-04T07:40:22.375Z,0
2019-01-04T07:41:23.887Z,0
2019-01-04T07:42:25.279Z,0
2019-01-04T07:43:26.971Z,0
2019-01-04T07:44:28.372Z,0
2019-01-04T07:45:30.057Z,0
2019-01-04T07:46:31.449Z,0
2019-01-04T07:47:33.143Z,0
2019-01-04T07:48:34.536Z,0
2019-01-04T07:49:36.230Z,0
2019-01-04T07:50:37.626Z,0
2019-01-04T07:51:39.019Z,0
2019-01-04T07:52:40.552Z,0
2019-01-04T07:53:41.949Z,0
2019-01-04T07:54:43.340Z,0
2019-01-04T07:55:44.872Z,5
2019-01-04T07:56:46.265Z,5
2019-01-04T07:57:47.659Z,5
2019-01-04T07:58:49.197Z,5
2019-01-04T07:59:50.587Z,5
2019-01-04T08:00:51.982Z,5
2019-01-04T08:01:53.517Z,10
2019-01-04T08:02:54.913Z,10
2019-01-04T08:03:56.307Z,10
2019-01-04T08:04:57.837Z,10
2019-01-04T08:05:59.265Z,15
2019-01-04T08:07:00.925Z,15
2019-01-04T08:08:02.317Z,10
2019-01-04T08:09:04.009Z,10
2019-01-04T08:10:05.405Z,15
2019-01-04T08:11:07.102Z,10
2019-01-04T08:12:08.494Z,15
2019-01-04T08:13:10.185Z,15
2019-01-04T08:14:11.575Z,15
2019-01-04T08:15:13.644Z,20
2019-01-04T08:16:15.043Z,20
2019-01-04T08:17:16.438Z,15
2019-01-04T08:18:17.996Z,10
2019-01-04T08:19:19.397Z,10
2019-01-04T08:20:20.805Z,15
2019-01-04T08:21:22.344Z,15
2019-01-04T08:22:23.738Z,15
2019-01-04T08:23:25.407Z,15
2019-01-04T08:24:26.806Z,15
2019-01-04T08:25:28.406Z,15
2019-01-04T08:26:29.802Z,15
2019-01-04T08:27:31.197Z,15
2019-01-04T08:28:32.972Z,15
2019-01-04T08:29:34.390Z,15
2019-01-04T08:30:35.787Z,20
2019-01-04T08:31:37.237Z,20
2019-01-04T08:32:38.637Z,25
2019-01-04T08:33:40.051Z,30
2019-01-04T08:34:41.661Z,25
2019-01-04T08:35:43.438Z,30
2019-01-04T08:36:44.837Z,30
2019-01-04T08:37:46.409Z,30
2019-01-04T08:38:47.809Z,40
2019-01-04T08:39:49.204Z,40
2019-01-04T08:40:50.713Z,35
2019-01-04T08:41:52.125Z,45
2019-01-04T08:42:53.797Z,40
2019-01-04T08:43:55.203Z,45
2019-01-04T08:44:56.893Z,50
2019-01-04T08:45:58.440Z,55
2019-01-04T08:46:59.978Z,55
2019-01-04T08:48:01.369Z,50
2019-01-04T08:49:03.056Z,50
2019-01-04T08:50:04.451Z,50
2019-01-04T08:51:06.146Z,60
2019-01-04T08:52:07.539Z,50
2019-01-04T08:53:09.227Z,50
2019-01-04T08:54:10.659Z,40
2019-01-04T08:55:12.318Z,40
2019-01-04T08:56:13.927Z,35
2019-01-04T08:57:15.316Z,25
2019-01-04T08:58:16.839Z,25
2019-01-04T08:59:18.236Z,35
2019-01-04T09:00:19.635Z,35
2019-01-04T09:01:21.162Z,25
2019-01-04T09:02:22.605Z,30
2019-01-04T09:03:24.250Z,35
2019-01-04T09:04:25.640Z,40
2019-01-04T09:05:27.333Z,45
2019-01-04T09:06:28.727Z,60
2019-01-04T09:07:30.262Z,55
2019-01-04T09:08:31.860Z,45
2019-01-04T09:09:33.271Z,50
2019-01-04T09:10:34.669Z,55
2019-01-04T09:11:36.201Z,45
2019-01-04T09:12:37.661Z,60
2019-01-04T09:13:39.081Z,60
2019-01-04T09:14:40.705Z,60
2019-01-04T09:15:42.103Z,60
2019-01-04T09:16:43.503Z,55
2019-01-04T09:17:45.027Z,50
2019-01-04T09:18:46.444Z,65
2019-01-04T09:19:47.841Z,45
2019-01-04T09:20:49.484Z,60
2019-01-04T09:21:50.829Z,50
2019-01-04T09:22:52.227Z,45
2019-01-04T09:23:53.670Z,55
2019-01-04T09:24:55.070Z,45
2019-01-04T09:25:56.461Z,65
2019-01-04T09:26:57.994Z,65
2019-01-04T09:27:59.399Z,70
2019-01-04T09:29:01.077Z,60
2019-01-04T09:30:02.480Z,50
2019-01-04T09:31:04.217Z,70
2019-01-04T09:32:05.617Z,80
2019-01-04T09:33:07.249Z,75
2019-01-04T09:34:08.647Z,85
2019-01-04T09:35:10.358Z,85
2019-01-04T09:36:11.757Z,90
2019-01-04T09:37:13.154Z,90
2019-01-04T09:38:14.654Z,90
2019-01-04T09:39:16.044Z,85
2019-01-04T09:40:17.457Z,70
2019-01-04T09:41:18.974Z,75
2019-01-04T09:42:20.378Z,85
2019-01-04T09:43:21.772Z,75
2019-01-04T09:44:23.296Z,80
2019-01-04T09:45:24.694Z,65
2019-01-04T09:46:26.095Z,65
2019-01-04T09:47:27.820Z,65
2019-01-04T09:48:29.221Z,85
2019-01-04T09:49:30.905Z,75
2019-01-04T09:50:32.305Z,55
2019-01-04T09:51:33.709Z,50
2019-01-04T09:52:35.229Z,45
2019-01-04T09:53:36.644Z,50
2019-01-04T09:54:38.029Z,65
2019-01-04T09:55:39.563Z,65
2019-01-04T09:56:40.960Z,75
2019-01-04T09:57:42.639Z,95
2019-01-04T09:58:44.279Z,70
2019-01-04T09:59:45.683Z,70
2019-01-04T10:00:47.367Z,75
2019-01-04T10:01:48.763Z,90
2019-01-04T10:02:50.452Z,85
2019-01-04T10:03:51.846Z,80
2019-01-04T10:04:53.539Z,90
2019-01-04T10:05:54.930Z,70
2019-01-04T10:07:00.349Z,90
2019-01-04T10:08:02.338Z,100
2019-01-04T10:09:03.600Z,120
2019-01-04T10:10:05.456Z,125
2019-01-04T10:11:07.096Z,100
2019-01-04T10:12:08.503Z,125
2019-01-04T10:13:09.907Z,120
2019-01-04T10:14:11.426Z,100
2019-01-04T10:15:12.846Z,75
2019-01-04T10:16:14.226Z,100
2019-01-04T10:17:15.738Z,80
2019-01-04T10:18:17.138Z,65
2019-01-04T10:19:18.823Z,80
2019-01-04T10:20:20.318Z,85
2019-01-04T10:21:21.932Z,50
2019-01-04T10:22:23.424Z,45
2019-01-04T10:23:24.995Z,45
2019-01-04T10:24:26.391Z,35
2019-01-04T10:25:28.079Z,40
2019-01-04T10:26:29.474Z,35
2019-01-04T10:27:30.964Z,30
2019-01-04T10:28:32.366Z,25
2019-01-04T10:29:34.958Z,25
2019-01-04T10:30:36.358Z,20
2019-01-04T10:31:38.382Z,20
2019-01-04T10:32:39.770Z,20
2019-01-04T10:33:41.243Z,20
2019-01-04T10:34:42.639Z,35
2019-01-04T10:35:44.138Z,30
2019-01-04T10:36:45.538Z,25
2019-01-04T10:37:47.213Z,30
2019-01-04T10:38:48.621Z,35
2019-01-04T10:39:50.295Z,60
2019-01-04T10:40:51.689Z,35
2019-01-04T10:41:53.121Z,30
2019-01-04T10:42:54.618Z,45
2019-01-04T10:43:56.020Z,40
2019-01-04T10:44:57.416Z,70
2019-01-04T10:45:58.835Z,65
2019-01-04T10:47:00.231Z,55
2019-01-04T10:48:01.700Z,45
2019-01-04T10:49:03.157Z,40
2019-01-04T10:50:04.601Z,70
2019-01-04T10:51:06.038Z,50
2019-01-04T10:52:07.432Z,45
2019-01-04T10:53:09.366Z,40
2019-01-04T10:54:10.764Z,45
2019-01-04T10:55:12.211Z,45
2019-01-04T10:56:13.606Z,45
2019-01-04T10:57:15.007Z,45
2019-01-04T10:58:16.429Z,55
2019-01-04T10:59:17.824Z,70
2019-01-04T11:00:19.226Z,60
2019-01-04T11:01:20.988Z,45
2019-01-04T11:02:22.389Z,40
2019-01-04T11:03:23.791Z,45
2019-01-04T11:04:25.277Z,40
2019-01-04T11:05:26.755Z,50
2019-01-04T11:06:28.258Z,75
2019-01-04T11:07:29.660Z,90
2019-01-04T11:08:31.059Z,60
2019-01-04T11:09:32.684Z,90
2019-01-04T11:10:34.692Z,65
2019-01-04T11:11:35.443Z,70
2019-01-04T11:12:37.005Z,85
2019-01-04T11:13:38.403Z,85
2019-01-04T11:14:40.095Z,75
2019-01-04T11:15:41.493Z,105
2019-01-04T11:16:43.188Z,110
2019-01-04T11:17:44.583Z,100
2019-01-04T11:18:46.846Z,80
2019-01-04T11:19:48.302Z,55
2019-01-04T11:20:49.961Z,45
2019-01-04T11:21:51.383Z,30
2019-01-04T11:22:52.778Z,25
2019-01-04T11:23:54.286Z,25
2019-01-04T11:24:55.746Z,20
2019-01-04T11:25:57.143Z,25
2019-01-04T11:26:58.808Z,20
2019-01-04T11:28:00.274Z,20
2019-01-04T11:29:01.664Z,25
2019-01-04T11:30:03.167Z,25
2019-01-04T11:31:04.560Z,25
2019-01-04T11:32:05.996Z,25
2019-01-04T11:33:07.658Z,25
2019-01-04T11:34:09.052Z,20
2019-01-04T11:35:10.545Z,15
2019-01-04T11:36:11.974Z,15
2019-01-04T11:37:13.621Z,15
2019-01-04T11:38:15.033Z,20
2019-01-04T11:39:16.429Z,15
2019-01-04T11:40:17.968Z,15
2019-01-04T11:41:19.369Z,15
2019-01-04T11:42:20.801Z,20
2019-01-04T11:43:22.470Z,20
2019-01-04T11:44:23.869Z,15
2019-01-04T11:45:25.266Z,15
2019-01-04T11:46:26.842Z,15
2019-01-04T11:47:28.240Z,20
2019-01-04T11:48:29.655Z,25
2019-01-04T11:49:31.591Z,35
2019-01-04T11:50:32.686Z,20
2019-01-04T11:51:34.075Z,30
2019-01-04T11:52:35.638Z,30
2019-01-04T11:53:37.035Z,15
2019-01-04T11:54:38.732Z,20
2019-01-04T11:55:40.265Z,15
2019-01-04T11:56:41.810Z,20
2019-01-04T11:57:43.207Z,20
2019-01-04T11:58:44.601Z,15
2019-01-04T11:59:46.174Z,15
2019-01-04T12:00:47.573Z,15
2019-01-04T12:01:48.970Z,15
2019-01-04T12:02:50.453Z,20
2019-01-04T12:03:51.857Z,20
2019-01-04T12:04:53.339Z,15
2019-01-04T12:05:54.734Z,15
2019-01-04T12:06:56.213Z,15
2019-01-04T12:07:57.611Z,10
2019-01-04T12:08:59.073Z,10
2019-01-04T12:10:00.742Z,15
2019-01-04T12:11:02.139Z,15
2019-01-04T12:12:03.542Z,15
2019-01-04T12:13:05.102Z,15
2019-01-04T12:14:06.495Z,15
2019-01-04T12:15:07.892Z,15
2019-01-04T12:16:09.383Z,20
2019-01-04T12:17:10.808Z,15
2019-01-04T12:18:12.204Z,15
2019-01-04T12:19:13.705Z,20
2019-01-04T12:20:15.102Z,20
2019-01-04T12:21:16.615Z,15
2019-01-04T12:22:18.016Z,15
2019-01-04T12:23:19.451Z,15
2019-01-04T12:24:20.904Z,15
2019-01-04T12:25:22.359Z,20
2019-01-04T12:26:23.752Z,20
2019-01-04T12:27:25.229Z,10
2019-01-04T12:28:26.627Z,15
2019-01-04T12:29:28.445Z,20
2019-01-04T12:30:29.960Z,15
2019-01-04T12:31:31.366Z,20
2019-01-04T12:32:32.764Z,20
2019-01-04T12:33:34.283Z,20
2019-01-04T12:34:35.685Z,20
2019-01-04T12:35:37.164Z,10
2019-01-04T12:36:38.562Z,20
2019-01-04T12:37:40.053Z,15
2019-01-04T12:38:41.450Z,20
2019-01-04T12:39:42.925Z,30
2019-01-04T12:40:44.321Z,30
2019-01-04T12:41:45.803Z,20
2019-01-04T12:42:47.204Z,15
2019-01-04T12:43:48.601Z,25
2019-01-04T12:44:50.126Z,35
2019-01-04T12:45:52.987Z,40
2019-01-04T12:46:54.382Z,35
2019-01-04T12:47:55.885Z,45
2019-01-04T12:48:57.348Z,35
2019-01-04T12:49:58.744Z,30
2019-01-04T12:51:00.169Z,30
2019-01-04T12:52:01.851Z,25
2019-01-04T12:53:03.250Z,30
2019-01-04T12:54:05.032Z,40
2019-01-04T12:55:06.585Z,35
2019-01-04T12:56:08.015Z,30
2019-01-04T12:57:09.666Z,35
2019-01-04T12:58:11.063Z,30
2019-01-04T12:59:12.750Z,30
2019-01-04T13:00:14.396Z,30
2019-01-04T13:01:15.795Z,40
2019-01-04T13:02:17.194Z,50
2019-01-04T13:03:18.727Z,35
2019-01-04T13:04:20.112Z,25
2019-01-04T13:05:22.549Z,15
2019-01-04T13:06:23.243Z,15
2019-01-04T13:07:24.640Z,15
2019-01-04T13:08:26.035Z,20
2019-01-04T13:09:27.567Z,20
2019-01-04T13:10:28.959Z,15
2019-01-04T13:11:30.356Z,20
2019-01-04T13:12:31.890Z,15
2019-01-04T13:13:33.283Z,20
2019-01-04T13:14:34.681Z,15
2019-01-04T13:15:36.219Z,20
2019-01-04T13:16:37.608Z,20
2019-01-04T13:17:39.387Z,25
2019-01-04T13:18:40.944Z,25
2019-01-04T13:19:42.341Z,15
2019-01-04T13:20:43.738Z,20
2019-01-04T13:21:45.266Z,30
2019-01-04T13:22:46.657Z,20
2019-01-04T13:23:48.050Z,40
2019-01-04T13:24:49.581Z,45
2019-01-04T13:25:51.643Z,45
2019-01-04T13:26:53.038Z,45
2019-01-04T13:27:54.519Z,55
2019-01-04T13:28:56.069Z,60
2019-01-04T13:29:57.472Z,65
2019-01-04T13:30:59.046Z,60
2019-01-04T13:32:00.445Z,55
2019-01-04T13:33:01.856Z,50
2019-01-04T13:34:03.379Z,50
2019-01-04T13:35:04.778Z,45
2019-01-04T13:36:06.884Z,40
2019-01-04T13:37:09.977Z,35
2019-01-04T13:38:11.614Z,45
2019-01-04T13:39:13.019Z,45
2019-01-04T13:40:14.415Z,30
2019-01-04T13:41:15.907Z,30
2019-01-04T13:42:17.305Z,35
2019-01-04T13:43:18.702Z,25
2019-01-04T13:44:20.227Z,30
2019-01-04T13:45:21.630Z,25
2019-01-04T13:46:23.107Z,25
2019-01-04T13:47:24.505Z,30
2019-01-04T13:48:25.987Z,30
2019-01-04T13:49:27.390Z,25
2019-01-04T13:50:28.866Z,25
2019-01-04T13:51:30.263Z,20
2019-01-04T13:52:31.759Z,25
2019-01-04T13:53:33.155Z,25
2019-01-04T13:54:34.631Z,30
2019-01-04T13:55:36.031Z,25
2019-01-04T13:56:37.449Z,25
2019-01-04T13:57:38.845Z,30
2019-01-04T13:58:40.332Z,25
2019-01-04T13:59:41.725Z,25
2019-01-04T14:00:43.121Z,25
2019-01-04T14:01:44.651Z,20
2019-01-04T14:02:46.050Z,20
2019-01-04T14:03:47.453Z,15
2019-01-04T14:04:49.352Z,15
2019-01-04T14:05:50.750Z,10
2019-01-04T14:06:52.262Z,10
2019-01-04T14:07:53.660Z,10
2019-01-04T14:08:55.143Z,10
2019-01-04T14:09:56.541Z,10
2019-01-04T14:10:57.937Z,10
2019-01-04T14:11:59.846Z,10
2019-01-04T14:13:01.264Z,10
2019-01-04T14:14:02.667Z,15
2019-01-04T14:15:04.198Z,15
2019-01-04T14:16:05.596Z,15
2019-01-04T14:17:06.991Z,15
2019-01-04T14:18:08.520Z,15
2019-01-04T14:19:09.919Z,10
2019-01-04T14:20:11.312Z,10
2019-01-04T14:21:12.840Z,10
2019-01-04T14:22:14.238Z,10
2019-01-04T14:23:15.723Z,10
2019-01-04T14:24:17.116Z,10
2019-01-04T14:25:18.604Z,10
2019-01-04T14:26:20.001Z,10
2019-01-04T14:27:21.484Z,10
2019-01-04T14:28:22.880Z,10
2019-01-04T14:29:24.365Z,10
2019-01-04T14:30:25.755Z,5
2019-01-04T14:31:27.244Z,5
2019-01-04T14:32:28.641Z,5
2019-01-04T14:33:30.184Z,5
2019-01-04T14:34:31.576Z,5
2019-01-04T14:35:33.091Z,5
2019-01-04T14:36:34.484Z,5
2019-01-04T14:37:36.150Z,5
2019-01-04T14:38:37.542Z,5
2019-01-04T14:39:38.945Z,5
2019-01-04T14:40:40.419Z,5
2019-01-04T14:41:41.806Z,5
2019-01-04T14:42:43.294Z,5
2019-01-04T14:43:44.690Z,5
2019-01-04T14:44:46.187Z,5
2019-01-04T14:45:47.579Z,5
2019-01-04T14:46:49.062Z,5
2019-01-04T14:47:50.459Z,5
2019-01-04T14:48:51.940Z,5
2019-01-04T14:49:53.334Z,5
2019-01-04T14:50:54.819Z,5
2019-01-04T14:51:56.217Z,5
2019-01-04T14:52:57.758Z,0
2019-01-04T14:53:59.158Z,5